createdAt,value
2023-04-12T00:00:34.819Z,10.35
2023-04-12T00:01:34.937Z,10.35
2023-04-12T00:02:35.226Z,10.34
2023-04-12T00:03:35.356Z,10.32
2023-04-12T00:04:35.477Z,10.32
2023-04-12T00:05:35.417Z,10.32
2023-04-12T00:06:35.555Z,10.34
2023-04-12T00:07:35.636Z,10.35
2023-04-12T00:08:35.744Z,10.35
2023-04-12T00:09:35.841Z,10.36
2023-04-12T00:10:35.955Z,10.34
2023-04-12T00:11:36.069Z,10.32
2023-04-12T00:12:36.200Z,10.33
2023-04-12T00:13:36.244Z,10.35
2023-04-12T00:14:36.286Z,10.34
2023-04-12T00:15:36.411Z,10.33
2023-04-12T00:16:36.440Z,10.34
2023-04-12T00:17:36.535Z,10.30
2023-04-12T00:18:36.621Z,10.29
2023-04-12T00:19:36.686Z,10.30
2023-04-12T00:20:36.742Z,10.32
2023-04-12T00:21:36.814Z,10.32
2023-04-12T00:22:36.884Z,10.32
2023-04-12T00:23:36.948Z,10.31
2023-04-12T00:24:37.002Z,10.31
2023-04-12T00:25:37.078Z,10.29
2023-04-12T00:26:37.143Z,10.27
2023-04-12T00:27:37.267Z,10.26
2023-04-12T00:28:37.385Z,10.27
2023-04-12T00:29:37.541Z,10.25
2023-04-12T00:30:37.608Z,10.25
2023-04-12T00:31:37.821Z,10.25
2023-04-12T00:32:37.831Z,10.27
2023-04-12T00:33:37.949Z,10.26
2023-04-12T00:34:38.070Z,10.25
2023-04-12T00:35:38.296Z,10.25
2023-04-12T00:36:38.268Z,10.25
2023-04-12T00:37:38.367Z,10.23
2023-04-12T00:38:38.449Z,10.22
2023-04-12T00:39:38.549Z,10.22
2023-04-12T00:40:38.714Z,10.23
2023-04-12T00:41:38.796Z,10.22
2023-04-12T00:42:38.884Z,10.23
2023-04-12T00:43:39.010Z,10.23
2023-04-12T00:44:39.112Z,10.22
2023-04-12T00:45:39.231Z,10.22
2023-04-12T00:46:39.379Z,10.21
2023-04-12T00:47:39.547Z,10.21
2023-04-12T00:48:39.594Z,10.20
2023-04-12T00:49:39.684Z,10.21
2023-04-12T00:50:39.811Z,10.20
2023-04-12T00:51:39.919Z,10.19
2023-04-12T00:52:40.004Z,10.19
2023-04-12T00:53:40.104Z,10.17
2023-04-12T00:54:40.206Z,10.17
2023-04-12T00:55:40.322Z,10.17
2023-04-12T00:56:40.412Z,10.19
2023-04-12T00:57:40.574Z,10.18
2023-04-12T00:58:40.579Z,10.15
2023-04-12T00:59:40.690Z,10.15
2023-04-12T01:00:40.852Z,10.14
2023-04-12T01:01:40.940Z,10.14
2023-04-12T01:02:41.119Z,10.14
2023-04-12T01:03:41.075Z,10.14
2023-04-12T01:04:41.076Z,10.14
2023-04-12T01:05:41.125Z,10.13
2023-04-12T01:06:41.282Z,10.12
2023-04-12T01:07:41.479Z,10.14
2023-04-12T01:08:41.605Z,10.15
2023-04-12T01:09:41.706Z,10.12
2023-04-12T01:10:41.814Z,10.11
2023-04-12T01:11:41.893Z,10.08
2023-04-12T01:12:41.962Z,10.09
2023-04-12T01:13:42.102Z,10.08
2023-04-12T01:14:42.164Z,10.08
2023-04-12T01:15:42.249Z,10.06
2023-04-12T01:16:42.404Z,10.07
2023-04-12T01:17:42.409Z,10.02
2023-04-12T01:18:42.459Z,9.98
2023-04-12T01:19:42.508Z,9.96
2023-04-12T01:20:42.568Z,9.94
2023-04-12T01:21:42.637Z,9.91
2023-04-12T01:22:42.699Z,9.88
2023-04-12T01:23:42.751Z,9.85
2023-04-12T01:24:42.837Z,9.85
2023-04-12T01:25:42.948Z,9.85
2023-04-12T01:26:42.911Z,9.78
2023-04-12T01:27:42.976Z,9.72
2023-04-12T01:28:43.040Z,9.74
2023-04-12T01:29:43.110Z,9.78
2023-04-12T01:30:43.241Z,9.80
2023-04-12T01:31:43.267Z,9.81
2023-04-12T01:32:43.320Z,9.85
2023-04-12T01:33:43.344Z,9.84
2023-04-12T01:34:43.392Z,9.87
2023-04-12T01:35:43.510Z,9.86
2023-04-12T01:36:43.512Z,9.88
2023-04-12T01:37:43.569Z,9.89
2023-04-12T01:38:43.634Z,9.86
2023-04-12T01:39:43.706Z,9.88
2023-04-12T01:40:43.763Z,9.91
2023-04-12T01:41:43.833Z,9.94
2023-04-12T01:42:43.900Z,9.95
2023-04-12T01:43:43.961Z,9.94
2023-04-12T01:44:44.033Z,9.93
2023-04-12T01:45:44.171Z,9.95
2023-04-12T01:46:44.143Z,9.94
2023-04-12T01:47:44.231Z,9.95
2023-04-12T01:48:44.257Z,9.96
2023-04-12T01:49:44.393Z,9.97
2023-04-12T01:50:44.399Z,9.98
2023-04-12T01:51:44.441Z,9.99
2023-04-12T01:52:44.491Z,9.99
2023-04-12T01:53:44.573Z,9.99
2023-04-12T01:54:44.625Z,10.00
2023-04-12T01:55:44.677Z,9.99
2023-04-12T01:56:44.745Z,9.98
2023-04-12T01:57:44.790Z,9.97
2023-04-12T01:58:44.853Z,9.97
2023-04-12T01:59:44.920Z,9.96
2023-04-12T02:00:45.061Z,9.98
2023-04-12T02:01:45.146Z,9.98
2023-04-12T02:02:45.248Z,9.91
2023-04-12T02:03:45.406Z,9.89
2023-04-12T02:04:45.320Z,9.88
2023-04-12T02:05:45.450Z,9.88
2023-04-12T02:06:45.553Z,9.89
2023-04-12T02:07:45.656Z,9.88
2023-04-12T02:08:45.751Z,9.89
2023-04-12T02:09:45.898Z,9.87
2023-04-12T02:10:45.952Z,9.87
2023-04-12T02:11:46.018Z,9.87
2023-04-12T02:12:46.116Z,9.86
2023-04-12T02:13:46.199Z,9.79
2023-04-12T02:14:46.277Z,9.78
2023-04-12T02:15:46.344Z,9.76
2023-04-12T02:16:46.495Z,9.75
2023-04-12T02:17:46.513Z,9.78
2023-04-12T02:18:46.611Z,9.80
2023-04-12T02:19:46.710Z,9.81
2023-04-12T02:20:46.796Z,9.83
2023-04-12T02:21:46.869Z,9.85
2023-04-12T02:22:46.938Z,9.85
2023-04-12T02:23:47.044Z,9.84
2023-04-12T02:24:47.061Z,9.82
2023-04-12T02:25:47.141Z,9.78
2023-04-12T02:26:47.212Z,9.79
2023-04-12T02:27:47.271Z,9.81
2023-04-12T02:28:47.344Z,9.78
2023-04-12T02:29:47.414Z,9.78
2023-04-12T02:30:47.528Z,9.75
2023-04-12T02:31:47.542Z,9.72
2023-04-12T02:32:47.686Z,9.72
2023-04-12T02:33:47.684Z,9.69
2023-04-12T02:34:47.771Z,9.61
2023-04-12T02:35:47.857Z,9.54
2023-04-12T02:36:47.886Z,9.56
2023-04-12T02:37:47.950Z,9.56
2023-04-12T02:38:48.750Z,9.56
2023-04-12T02:39:48.088Z,9.56
2023-04-12T02:40:48.170Z,9.54
2023-04-12T02:41:48.228Z,9.51
2023-04-12T02:42:48.298Z,9.52
2023-04-12T02:43:48.377Z,9.48
2023-04-12T02:44:48.446Z,9.44
2023-04-12T02:45:48.570Z,9.40
2023-04-12T02:46:48.604Z,9.34
2023-04-12T02:47:48.717Z,9.34
2023-04-12T02:48:48.775Z,9.31
2023-04-12T02:49:48.857Z,9.32
2023-04-12T02:50:48.975Z,9.32
2023-04-12T02:51:49.051Z,9.30
2023-04-12T02:52:49.145Z,9.26
2023-04-12T02:53:49.255Z,9.10
2023-04-12T02:54:49.336Z,9.08
2023-04-12T02:55:49.438Z,9.07
2023-04-12T02:56:49.536Z,9.10
2023-04-12T02:57:49.627Z,9.09
2023-04-12T02:58:49.736Z,9.08
2023-04-12T02:59:49.826Z,9.09
2023-04-12T03:00:49.925Z,9.12
2023-04-12T03:01:50.076Z,9.13
2023-04-12T03:02:50.257Z,9.18
2023-04-12T03:03:50.290Z,9.22
2023-04-12T03:04:50.313Z,9.27
2023-04-12T03:05:50.411Z,9.26
2023-04-12T03:06:50.509Z,9.23
2023-04-12T03:07:50.613Z,9.19
2023-04-12T03:08:50.709Z,9.14
2023-04-12T03:09:50.810Z,9.19
2023-04-12T03:10:50.904Z,9.25
2023-04-12T03:11:51.026Z,9.26
2023-04-12T03:12:51.104Z,9.25
2023-04-12T03:13:51.206Z,9.26
2023-04-12T03:14:51.295Z,9.25
2023-04-12T03:15:51.434Z,9.26
2023-04-12T03:16:51.505Z,9.28
2023-04-12T03:17:51.672Z,9.25
2023-04-12T03:18:51.714Z,9.21
2023-04-12T03:19:51.794Z,9.20
2023-04-12T03:20:51.879Z,9.21
2023-04-12T03:21:51.976Z,9.23
2023-04-12T03:22:52.061Z,9.23
2023-04-12T03:23:52.158Z,9.26
2023-04-12T03:24:52.251Z,9.23
2023-04-12T03:25:52.348Z,9.20
2023-04-12T03:26:52.439Z,9.23
2023-04-12T03:27:52.520Z,9.24
2023-04-12T03:28:52.609Z,9.22
2023-04-12T03:29:52.710Z,9.24
2023-04-12T03:30:52.851Z,9.20
2023-04-12T03:31:52.890Z,9.20
2023-04-12T03:32:53.079Z,9.23
2023-04-12T03:33:53.070Z,9.21
2023-04-12T03:34:53.170Z,9.21
2023-04-12T03:35:53.296Z,9.14
2023-04-12T03:36:53.403Z,9.14
2023-04-12T03:37:53.445Z,9.14
2023-04-12T03:38:53.562Z,9.14
2023-04-12T03:39:53.657Z,9.17
2023-04-12T03:40:53.758Z,9.19
2023-04-12T03:41:53.862Z,9.18
2023-04-12T03:42:53.958Z,9.16
2023-04-12T03:43:54.158Z,9.15
2023-04-12T03:44:54.172Z,9.17
2023-04-12T03:45:54.275Z,9.18
2023-04-12T03:46:54.454Z,9.21
2023-04-12T03:47:54.521Z,9.22
2023-04-12T03:48:54.559Z,9.24
2023-04-12T03:50:54.733Z,9.17
2023-04-12T03:51:54.800Z,9.12
2023-04-12T03:52:54.866Z,9.04
2023-04-12T03:53:55.105Z,9.01
2023-04-12T03:54:55.012Z,9.02
2023-04-12T03:55:55.079Z,9.04
2023-04-12T03:56:55.152Z,8.98
2023-04-12T03:57:55.230Z,8.97
2023-04-12T03:58:55.303Z,8.99
2023-04-12T03:59:55.395Z,9.01
2023-04-12T04:00:55.447Z,9.02
2023-04-12T04:01:55.536Z,9.02
2023-04-12T04:02:55.633Z,9.08
2023-04-12T04:03:56.232Z,9.10
2023-04-12T04:04:55.799Z,9.09
2023-04-12T04:05:55.835Z,9.09
2023-04-12T04:06:55.907Z,9.07
2023-04-12T04:07:55.983Z,9.08
2023-04-12T04:08:56.062Z,9.07
2023-04-12T04:09:56.148Z,9.11
2023-04-12T04:10:56.198Z,9.12
2023-04-12T04:11:56.278Z,9.12
2023-04-12T04:12:56.382Z,9.07
2023-04-12T04:13:56.626Z,8.97
2023-04-12T04:14:56.514Z,8.95
2023-04-12T04:15:56.636Z,8.95
2023-04-12T04:16:56.698Z,8.99
2023-04-12T04:17:56.806Z,9.02
2023-04-12T04:18:56.825Z,9.02
2023-04-12T04:19:56.908Z,9.05
2023-04-12T04:20:56.977Z,9.07
2023-04-12T04:21:57.070Z,9.06
2023-04-12T04:22:57.141Z,9.03
2023-04-12T04:23:57.418Z,9.02
2023-04-12T04:24:57.278Z,9.05
2023-04-12T04:25:57.367Z,9.04
2023-04-12T04:26:57.430Z,9.00
2023-04-12T04:27:57.503Z,8.94
2023-04-12T04:28:57.622Z,8.82
2023-04-12T04:29:57.667Z,8.83
2023-04-12T04:30:57.743Z,8.82
2023-04-12T04:31:57.850Z,8.84
2023-04-12T04:32:57.897Z,8.84
2023-04-12T04:33:58.081Z,8.84
2023-04-12T04:34:58.031Z,8.81
2023-04-12T04:35:58.183Z,8.82
2023-04-12T04:36:58.179Z,8.83
2023-04-12T04:37:58.282Z,8.84
2023-04-12T04:38:58.342Z,8.85
2023-04-12T04:39:58.422Z,8.89
2023-04-12T04:40:58.510Z,8.91
2023-04-12T04:41:58.588Z,8.88
2023-04-12T04:42:58.672Z,8.85
2023-04-12T04:43:58.839Z,8.83
2023-04-12T04:44:58.821Z,8.82
2023-04-12T04:45:59.018Z,8.77
2023-04-12T04:46:58.980Z,8.70
2023-04-12T04:47:59.087Z,8.69
2023-04-12T04:48:59.113Z,8.70
2023-04-12T04:49:59.190Z,8.70
2023-04-12T04:50:59.260Z,8.68
2023-04-12T04:51:59.330Z,8.68
2023-04-12T04:52:59.414Z,8.70
2023-04-12T04:53:59.492Z,8.72
2023-04-12T04:54:59.572Z,8.74
2023-04-12T04:55:59.697Z,8.75
2023-04-12T04:56:59.791Z,8.77
2023-04-12T04:58:00.160Z,8.79
2023-04-12T04:59:00.238Z,8.73
2023-04-12T05:00:00.195Z,8.61
2023-04-12T05:01:00.345Z,8.62
2023-04-12T05:02:00.537Z,8.61
2023-04-12T05:03:00.635Z,8.56
2023-04-12T05:04:00.841Z,8.57
2023-04-12T05:05:00.863Z,8.59
2023-04-12T05:06:00.983Z,8.60
2023-04-12T05:07:01.102Z,8.61
2023-04-12T05:08:01.206Z,8.62
2023-04-12T05:09:01.318Z,8.63
2023-04-12T05:10:01.461Z,8.64
2023-04-12T05:11:01.575Z,8.66
2023-04-12T05:12:01.689Z,8.68
2023-04-12T05:13:02.778Z,8.71
2023-04-12T05:14:01.952Z,8.73
2023-04-12T05:16:02.122Z,8.73
2023-04-12T05:17:02.197Z,8.73
2023-04-12T05:18:02.369Z,8.71
2023-04-12T05:19:02.339Z,8.72
2023-04-12T05:20:02.428Z,8.73
2023-04-12T05:21:03.294Z,8.73
2023-04-12T05:22:02.578Z,8.74
2023-04-12T05:23:02.653Z,8.74
2023-04-12T05:24:02.793Z,8.75
2023-04-12T05:25:02.814Z,8.74
2023-04-12T05:26:03.792Z,8.74
2023-04-12T05:27:03.139Z,8.74
2023-04-12T05:28:03.314Z,8.72
2023-04-12T05:29:03.444Z,8.73
2023-04-12T05:30:03.190Z,8.74
2023-04-12T05:31:03.850Z,8.76
2023-04-12T05:32:03.351Z,8.75
2023-04-12T05:33:03.429Z,8.73
2023-04-12T05:34:03.477Z,8.72
2023-04-12T05:35:03.593Z,8.70
2023-04-12T05:36:03.750Z,8.72
2023-04-12T05:37:03.723Z,8.72
2023-04-12T05:38:03.788Z,8.72
2023-04-12T05:39:03.850Z,8.74
2023-04-12T05:40:03.924Z,8.74
2023-04-12T05:41:04.013Z,8.70
2023-04-12T05:42:04.088Z,8.71
2023-04-12T05:43:04.157Z,8.72
2023-04-12T05:44:04.229Z,8.73
2023-04-12T05:45:04.463Z,8.75
2023-04-12T05:46:04.429Z,8.74
2023-04-12T05:47:04.486Z,8.74
2023-04-12T05:48:04.615Z,8.73
2023-04-12T05:49:04.636Z,8.71
2023-04-12T05:50:06.401Z,8.70
2023-04-12T05:51:04.795Z,8.69
2023-04-12T05:52:04.878Z,8.67
2023-04-12T05:53:04.971Z,8.68
2023-04-12T05:54:05.063Z,8.69
2023-04-12T05:55:05.227Z,8.70
2023-04-12T05:56:05.544Z,8.72
2023-04-12T05:57:05.681Z,8.74
2023-04-12T05:58:05.651Z,8.74
2023-04-12T05:59:05.786Z,8.73
2023-04-12T06:00:05.927Z,8.72
2023-04-12T06:01:06.084Z,8.70
2023-04-12T06:02:06.245Z,8.69
2023-04-12T06:03:06.568Z,8.69
2023-04-12T06:04:06.586Z,8.70
2023-04-12T06:05:06.695Z,8.68
2023-04-12T06:06:06.767Z,8.69
2023-04-12T06:07:06.911Z,8.71
2023-04-12T06:08:07.055Z,8.70
2023-04-12T06:09:07.205Z,8.70
2023-04-12T06:10:07.456Z,8.71
2023-04-12T06:11:07.488Z,8.72
2023-04-12T06:12:07.645Z,8.73
2023-04-12T06:13:07.787Z,8.72
2023-04-12T06:14:09.461Z,8.71
2023-04-12T06:15:08.008Z,8.69
2023-04-12T06:16:08.094Z,8.69
2023-04-12T06:17:08.179Z,8.66
2023-04-12T06:18:08.366Z,8.65
2023-04-12T06:19:08.349Z,8.62
2023-04-12T06:20:08.403Z,8.58
2023-04-12T06:21:08.482Z,8.60
2023-04-12T06:22:08.557Z,8.60
2023-04-12T06:23:08.636Z,8.60
2023-04-12T06:24:08.726Z,8.62
2023-04-12T06:25:08.992Z,8.60
2023-04-12T06:26:08.892Z,8.59
2023-04-12T06:27:08.969Z,8.60
2023-04-12T06:28:09.063Z,8.58
2023-04-12T06:29:09.132Z,8.59
2023-04-12T06:30:09.713Z,8.59
2023-04-12T06:31:10.776Z,8.59
2023-04-12T06:32:09.374Z,8.55
2023-04-12T06:33:09.458Z,8.55
2023-04-12T06:34:09.534Z,8.56
2023-04-12T06:35:09.611Z,8.56
2023-04-12T06:36:09.764Z,8.55
2023-04-12T06:37:09.777Z,8.56
2023-04-12T06:38:09.859Z,8.57
2023-04-12T06:39:12.347Z,8.60
2023-04-12T06:40:10.036Z,8.64
2023-04-12T06:41:10.190Z,8.63
2023-04-12T06:42:11.580Z,8.65
2023-04-12T06:43:11.309Z,8.65
2023-04-12T06:44:10.510Z,8.64
2023-04-12T06:45:10.649Z,8.63
2023-04-12T06:46:10.808Z,8.61
2023-04-12T06:47:11.062Z,8.58
2023-04-12T06:48:11.088Z,8.58
2023-04-12T06:49:11.223Z,8.57
2023-04-12T06:50:11.340Z,8.58
2023-04-12T06:51:12.661Z,8.57
2023-04-12T06:52:11.657Z,8.56
2023-04-12T06:53:11.750Z,8.57
2023-04-12T06:54:13.803Z,8.57
2023-04-12T06:55:11.915Z,8.57
2023-04-12T06:56:11.993Z,8.58
2023-04-12T06:57:12.077Z,8.57
2023-04-12T06:58:12.166Z,8.58
2023-04-12T06:59:12.258Z,8.60
2023-04-12T07:00:12.335Z,8.60
2023-04-12T07:01:12.480Z,8.61
2023-04-12T07:02:12.564Z,8.61
2023-04-12T07:03:15.438Z,8.60
2023-04-12T07:04:13.756Z,8.60
2023-04-12T07:05:12.856Z,8.61
2023-04-12T07:06:24.444Z,8.61
2023-04-12T07:07:14.070Z,8.61
2023-04-12T07:08:13.377Z,8.63
2023-04-12T07:09:13.329Z,8.64
2023-04-12T07:10:13.302Z,8.65
2023-04-12T07:11:21.008Z,8.66
2023-04-12T07:12:14.465Z,8.62
2023-04-12T07:13:14.177Z,8.64
2023-04-12T07:14:13.607Z,8.65
2023-04-12T07:15:13.832Z,8.66
2023-04-12T07:16:13.782Z,8.65
2023-04-12T07:17:13.850Z,8.66
2023-04-12T07:18:13.924Z,8.67
2023-04-12T07:19:14.088Z,8.68
2023-04-12T07:20:14.120Z,8.67
2023-04-12T07:21:14.226Z,8.64
2023-04-12T07:22:14.446Z,8.63
2023-04-12T07:23:14.458Z,8.64
2023-04-12T07:24:14.623Z,8.64
2023-04-12T07:25:14.899Z,8.61
2023-04-12T07:26:14.910Z,8.59
2023-04-12T07:27:15.044Z,8.58
2023-04-12T07:28:15.196Z,8.56
2023-04-12T07:29:15.439Z,8.58
2023-04-12T07:30:15.479Z,8.56
2023-04-12T07:31:15.622Z,8.57
2023-04-12T07:32:15.766Z,8.60
2023-04-12T07:33:19.520Z,8.58
2023-04-12T07:34:16.229Z,8.58
2023-04-12T07:35:16.194Z,8.58
2023-04-12T07:36:16.328Z,8.58
2023-04-12T07:37:16.336Z,8.58
2023-04-12T07:38:17.080Z,8.57
2023-04-12T07:39:16.497Z,8.54
2023-04-12T07:40:16.569Z,8.56
2023-04-12T07:41:16.646Z,8.56
2023-04-12T07:42:16.736Z,8.55
2023-04-12T07:43:16.814Z,8.53
2023-04-12T07:44:16.898Z,8.49
2023-04-12T07:45:16.979Z,8.49
2023-04-12T07:46:17.064Z,8.52
2023-04-12T07:47:17.130Z,8.54
2023-04-12T07:48:17.232Z,8.55
2023-04-12T07:49:17.296Z,8.55
2023-04-12T07:50:17.380Z,8.58
2023-04-12T07:51:17.512Z,8.58
2023-04-12T07:52:17.561Z,8.59
2023-04-12T07:53:17.630Z,8.60
2023-04-12T07:54:17.715Z,8.58
2023-04-12T07:55:17.805Z,8.56
2023-04-12T07:56:17.954Z,8.55
2023-04-12T07:57:18.067Z,8.53
2023-04-12T07:58:18.211Z,8.54
2023-04-12T07:59:18.381Z,8.58
2023-04-12T08:00:18.520Z,8.60
2023-04-12T08:01:18.651Z,8.62
2023-04-12T08:02:18.873Z,8.65
2023-04-12T08:03:19.072Z,8.65
2023-04-12T08:04:19.204Z,8.62
2023-04-12T08:05:19.252Z,8.57
2023-04-12T08:06:19.370Z,8.52
2023-04-12T08:07:19.548Z,8.50
2023-04-12T08:08:20.402Z,8.48
2023-04-12T08:09:19.801Z,8.48
2023-04-12T08:10:19.932Z,8.42
2023-04-12T08:11:20.062Z,8.41
2023-04-12T08:12:20.213Z,8.43
2023-04-12T08:13:20.336Z,8.43
2023-04-12T08:14:21.233Z,8.42
2023-04-12T08:15:20.596Z,8.34
2023-04-12T08:16:20.769Z,8.25
2023-04-12T08:17:20.987Z,8.26
2023-04-12T08:18:21.035Z,8.25
2023-04-12T08:19:21.165Z,8.30
2023-04-12T08:20:21.326Z,8.33
2023-04-12T08:21:21.434Z,8.30
2023-04-12T08:22:21.583Z,8.29
2023-04-12T08:23:21.738Z,8.33
2023-04-12T08:24:22.094Z,8.34
2023-04-12T08:25:22.024Z,8.36
2023-04-12T08:26:22.165Z,8.41
2023-04-12T08:27:22.829Z,8.45
2023-04-12T08:28:22.429Z,8.47
2023-04-12T08:29:22.557Z,8.31
2023-04-12T08:30:22.653Z,8.27
2023-04-12T08:31:22.888Z,8.34
2023-04-12T08:32:23.826Z,8.43
2023-04-12T08:33:23.182Z,8.51
2023-04-12T08:34:23.195Z,8.57
2023-04-12T08:35:23.415Z,8.63
2023-04-12T08:36:23.496Z,8.67
2023-04-12T08:37:24.633Z,8.70
2023-04-12T08:38:37.324Z,8.73
2023-04-12T08:39:24.766Z,8.73
2023-04-12T08:40:23.846Z,8.74
2023-04-12T08:41:23.948Z,8.75
2023-04-12T08:42:24.043Z,8.75
2023-04-12T08:43:24.093Z,8.80
2023-04-12T08:44:24.179Z,8.85
2023-04-12T08:45:24.262Z,8.88
2023-04-12T08:46:25.350Z,8.92
2023-04-12T08:47:24.472Z,8.97
2023-04-12T08:48:24.561Z,9.01
2023-04-12T08:49:24.580Z,9.04
2023-04-12T08:50:24.653Z,9.08
2023-04-12T08:51:24.746Z,9.14
2023-04-12T08:52:24.874Z,9.17
2023-04-12T08:53:25.194Z,9.20
2023-04-12T08:54:25.102Z,9.22
2023-04-12T08:55:25.209Z,9.26
2023-04-12T08:56:25.343Z,9.27
2023-04-12T08:57:25.409Z,9.28
2023-04-12T08:58:25.527Z,9.20
2023-04-12T08:59:25.629Z,9.14
2023-04-12T09:00:25.792Z,9.08
2023-04-12T09:01:25.907Z,9.07
2023-04-12T09:02:27.063Z,9.09
2023-04-12T09:03:26.277Z,9.05
2023-04-12T09:04:26.356Z,9.05
2023-04-12T09:05:26.451Z,9.05
2023-04-12T09:06:26.545Z,9.01
2023-04-12T09:07:26.675Z,9.06
2023-04-12T09:08:26.785Z,9.11
2023-04-12T09:09:26.895Z,9.15
2023-04-12T09:10:26.996Z,9.19
2023-04-12T09:11:27.127Z,9.22
2023-04-12T09:12:27.254Z,9.17
2023-04-12T09:13:27.297Z,9.17
2023-04-12T09:14:28.326Z,9.21
2023-04-12T09:15:27.472Z,9.26
2023-04-12T09:16:27.560Z,9.31
2023-04-12T09:17:27.692Z,9.37
2023-04-12T09:18:27.738Z,9.34
2023-04-12T09:19:27.825Z,9.31
2023-04-12T09:20:27.938Z,9.34
2023-04-12T09:21:28.055Z,9.30
2023-04-12T09:22:28.181Z,9.21
2023-04-12T09:23:28.282Z,9.23
2023-04-12T09:24:28.434Z,9.25
2023-04-12T09:25:28.495Z,9.25
2023-04-12T09:26:28.580Z,9.30
2023-04-12T09:27:28.680Z,9.32
2023-04-12T09:28:28.802Z,9.29
2023-04-12T09:29:28.914Z,9.34
2023-04-12T09:30:29.016Z,9.34
2023-04-12T09:31:29.134Z,9.32
2023-04-12T09:32:29.264Z,9.32
2023-04-12T09:33:29.312Z,9.33
2023-04-12T09:34:29.435Z,9.36
2023-04-12T09:35:29.551Z,9.37
2023-04-12T09:36:29.721Z,9.43
2023-04-12T09:37:29.837Z,9.51
2023-04-12T09:38:29.984Z,9.56
2023-04-12T09:39:30.090Z,9.62
2023-04-12T09:40:30.216Z,9.67
2023-04-12T09:41:30.316Z,9.68
2023-04-12T09:42:34.079Z,9.69
2023-04-12T09:43:30.501Z,9.66
2023-04-12T09:44:30.572Z,9.63
2023-04-12T09:45:30.636Z,9.54
2023-04-12T09:46:30.716Z,9.55
2023-04-12T09:47:30.778Z,9.57
2023-04-12T09:48:30.838Z,9.59
2023-04-12T09:49:30.889Z,9.65
2023-04-12T09:50:30.968Z,9.66
2023-04-12T09:51:31.015Z,9.66
2023-04-12T09:52:32.407Z,9.70
2023-04-12T09:53:31.257Z,9.78
2023-04-12T09:54:31.752Z,9.84
2023-04-12T09:55:31.282Z,9.88
2023-04-12T09:56:31.365Z,9.94
2023-04-12T09:57:31.396Z,10.00
2023-04-12T09:58:31.757Z,10.05
2023-04-12T09:59:31.515Z,10.10
2023-04-12T10:00:31.590Z,10.14
2023-04-12T10:01:32.655Z,10.17
2023-04-12T10:02:31.856Z,10.22
2023-04-12T10:03:31.895Z,10.27
2023-04-12T10:04:31.842Z,10.33
2023-04-12T10:05:31.887Z,10.41
2023-04-12T10:06:31.937Z,10.49
2023-04-12T10:07:31.934Z,10.55
2023-04-12T10:08:32.031Z,10.63
2023-04-12T10:09:32.033Z,10.70
2023-04-12T10:10:32.155Z,10.75
2023-04-12T10:11:32.250Z,10.78
2023-04-12T10:12:32.847Z,10.78
2023-04-12T10:13:32.486Z,10.80
2023-04-12T10:14:32.534Z,10.84
2023-04-12T10:15:32.634Z,10.86
2023-04-12T10:16:32.769Z,10.88
2023-04-12T10:17:33.075Z,10.97
2023-04-12T10:18:32.921Z,11.01
2023-04-12T10:19:33.048Z,11.06
2023-04-12T10:20:33.089Z,11.12
2023-04-12T10:21:33.204Z,11.17
2023-04-12T10:22:33.275Z,11.17
2023-04-12T10:23:33.404Z,11.19
2023-04-12T10:24:33.498Z,11.21
2023-04-12T10:25:33.639Z,11.22
2023-04-12T10:26:33.703Z,11.22
2023-04-12T10:27:33.800Z,11.24
2023-04-12T10:28:33.902Z,11.25
2023-04-12T10:29:33.986Z,11.28
2023-04-12T10:30:34.099Z,11.28
2023-04-12T10:31:34.230Z,11.28
2023-04-12T10:32:35.417Z,11.31
2023-04-12T10:33:34.334Z,11.36
2023-04-12T10:34:34.426Z,11.39
2023-04-12T10:35:34.541Z,11.41
2023-04-12T10:36:34.619Z,11.39
2023-04-12T10:37:34.697Z,11.43
2023-04-12T10:38:36.095Z,11.47
2023-04-12T10:39:34.887Z,11.52
2023-04-12T10:40:34.955Z,11.53
2023-04-12T10:41:35.061Z,11.49
2023-04-12T10:42:35.121Z,11.50
2023-04-12T10:43:35.204Z,11.52
2023-04-12T10:44:36.210Z,11.55
2023-04-12T10:45:35.291Z,11.62
2023-04-12T10:46:35.456Z,11.67
2023-04-12T10:47:35.327Z,11.71
2023-04-12T10:48:35.369Z,11.75
2023-04-12T10:49:35.360Z,11.84
2023-04-12T10:50:35.459Z,11.91
2023-04-12T10:51:35.429Z,11.95
2023-04-12T10:52:35.463Z,11.97
2023-04-12T10:53:35.486Z,11.98
2023-04-12T10:54:35.701Z,12.01
2023-04-12T10:55:35.602Z,12.05
2023-04-12T10:56:35.591Z,12.06
2023-04-12T10:57:35.659Z,12.08
2023-04-12T10:58:35.651Z,12.10
2023-04-12T10:59:46.860Z,12.14
2023-04-12T11:00:36.765Z,12.17
2023-04-12T11:01:38.335Z,12.19
2023-04-12T11:02:35.896Z,12.23
2023-04-12T11:03:35.872Z,12.28
2023-04-12T11:04:35.925Z,12.31
2023-04-12T11:05:35.847Z,12.34
2023-04-12T11:06:35.854Z,12.41
2023-04-12T11:07:36.373Z,12.46
2023-04-12T11:08:36.894Z,12.45
2023-04-12T11:09:36.944Z,12.48
2023-04-12T11:10:35.922Z,12.56
2023-04-12T11:11:35.915Z,12.57
2023-04-12T11:12:35.931Z,12.63
2023-04-12T11:13:36.012Z,12.68
2023-04-12T11:14:35.983Z,12.73
2023-04-12T11:15:36.174Z,12.78
2023-04-12T11:16:36.070Z,12.80
2023-04-12T11:17:37.799Z,12.86
2023-04-12T11:18:36.230Z,12.86
2023-04-12T11:19:36.134Z,12.83
2023-04-12T11:20:36.160Z,12.85
2023-04-12T11:21:36.191Z,12.87
2023-04-12T11:22:36.223Z,12.90
2023-04-12T11:23:36.248Z,12.96
2023-04-12T11:24:36.293Z,12.98
2023-04-12T11:25:36.281Z,12.92
2023-04-12T11:26:36.290Z,12.87
2023-04-12T11:27:36.298Z,12.87
2023-04-12T11:28:36.308Z,12.91
2023-04-12T11:29:36.345Z,13.00
2023-04-12T11:30:36.432Z,13.04
2023-04-12T11:31:36.781Z,13.02
2023-04-12T11:32:36.556Z,13.05
2023-04-12T11:33:36.587Z,13.05
2023-04-12T11:34:36.662Z,13.08
2023-04-12T11:35:36.730Z,13.10
2023-04-12T11:36:36.837Z,13.07
2023-04-12T11:37:36.862Z,13.08
2023-04-12T11:38:36.951Z,13.12
2023-04-12T11:39:37.003Z,13.15
2023-04-12T11:40:37.059Z,13.19
2023-04-12T11:41:37.274Z,13.22
2023-04-12T11:42:38.360Z,13.26
2023-04-12T11:43:37.537Z,13.28
2023-04-12T11:44:54.460Z,13.31
2023-04-12T11:45:38.615Z,13.28
2023-04-12T11:46:37.631Z,13.27
2023-04-12T11:47:37.758Z,13.28
2023-04-12T11:48:37.670Z,13.25
2023-04-12T11:49:37.693Z,13.28
2023-04-12T11:50:37.713Z,13.32
2023-04-12T11:51:37.729Z,13.37
2023-04-12T11:52:37.750Z,13.41
2023-04-12T11:53:37.761Z,13.40
2023-04-12T11:54:37.748Z,13.49
2023-04-12T11:55:37.792Z,13.53
2023-04-12T11:56:37.867Z,13.54
2023-04-12T11:57:37.938Z,13.53
2023-04-12T11:58:37.986Z,13.54
2023-04-12T11:59:38.061Z,13.56
2023-04-12T12:00:38.121Z,13.48
2023-04-12T12:01:38.189Z,13.44
2023-04-12T12:02:43.756Z,13.46
2023-04-12T12:03:39.366Z,13.45
2023-04-12T12:04:38.344Z,13.46
2023-04-12T12:05:38.308Z,13.60
2023-04-12T12:06:38.643Z,13.71
2023-04-12T12:07:38.228Z,13.77
2023-04-12T12:08:38.242Z,13.70
2023-04-12T12:09:38.230Z,13.68
2023-04-12T12:10:46.951Z,13.71
2023-04-12T12:11:39.248Z,13.74
2023-04-12T12:12:38.230Z,13.80
2023-04-12T12:13:38.397Z,13.79
2023-04-12T12:14:38.246Z,13.83
2023-04-12T12:15:38.254Z,13.87
2023-04-12T12:16:38.254Z,13.94
2023-04-12T12:17:38.288Z,14.00
2023-04-12T12:18:38.245Z,14.06
2023-04-12T12:19:38.237Z,14.10
2023-04-12T12:20:38.241Z,14.12
2023-04-12T12:21:38.264Z,14.11
2023-04-12T12:22:38.266Z,14.22
2023-04-12T12:23:38.271Z,14.35
2023-04-12T12:24:42.081Z,14.41
2023-04-12T12:25:39.291Z,14.39
2023-04-12T12:26:38.305Z,14.35
2023-04-12T12:27:38.322Z,14.31
2023-04-12T12:28:38.304Z,14.31
2023-04-12T12:29:38.285Z,14.33
2023-04-12T12:30:38.285Z,14.35
2023-04-12T12:31:39.262Z,14.35
2023-04-12T12:32:38.352Z,14.28
2023-04-12T12:34:00.204Z,14.35
2023-04-12T12:34:39.289Z,14.38
2023-04-12T12:35:38.328Z,14.26
2023-04-12T12:36:38.288Z,14.28
2023-04-12T12:37:38.287Z,14.33
2023-04-12T12:38:38.304Z,14.39
2023-04-12T12:39:38.277Z,14.39
2023-04-12T12:40:38.287Z,14.42
2023-04-12T12:41:38.389Z,14.47
2023-04-12T12:42:38.292Z,14.50
2023-04-12T12:43:38.289Z,14.51
2023-04-12T12:44:38.282Z,14.53
2023-04-12T12:45:38.265Z,14.50
2023-04-12T12:46:51.934Z,14.48
2023-04-12T12:47:39.407Z,14.42
2023-04-12T12:48:38.310Z,14.45
2023-04-12T12:49:38.247Z,14.50
2023-04-12T12:50:38.198Z,14.47
2023-04-12T12:51:38.185Z,14.46
2023-04-12T12:52:38.188Z,14.58
2023-04-12T12:53:38.179Z,14.67
2023-04-12T12:54:41.540Z,14.78
2023-04-12T12:55:38.151Z,14.91
2023-04-12T12:56:38.216Z,14.97
2023-04-12T12:57:38.109Z,15.05
2023-04-12T12:58:39.693Z,14.99
2023-04-12T12:59:38.124Z,14.99
2023-04-12T13:00:38.062Z,15.05
2023-04-12T13:01:38.110Z,14.99
2023-04-12T13:02:38.238Z,14.86
2023-04-12T13:03:38.214Z,14.86
2023-04-12T13:04:38.260Z,14.80
2023-04-12T13:05:38.044Z,14.85
2023-04-12T13:06:38.052Z,14.93
2023-04-12T13:07:38.075Z,15.00
2023-04-12T13:08:38.033Z,15.06
2023-04-12T13:09:38.022Z,15.20
2023-04-12T13:10:37.991Z,15.34
2023-04-12T13:11:38.017Z,15.38
2023-04-12T13:12:37.972Z,15.38